Station: Kimba

  Atmospheric Gas Attenuation - ITU Rec 676-11   --------------- db/100km ---------------
Date Time Temp RH % AH g/m3 Dew Point Wind Direction Speed kph Gust kph Barometer mB Rainfall Since 9am 24GHz 47GHz 76GHz 122GHz 134GHz 241GHz
12 09:00 6 97 7.04 5.6 0 1013.1 3 16.6 25.6 37.2 97.4 86.6 296.3
11 09:00 7.5 100 8.01 7.5 0 1013.1 2 18.6 26.8 40.6 106.4 98.4 337.6
10 09:00 10 56 5.26 1.8 0 1013.1 0 12.6 21.7 28.5 74.3 59.8 202.5
09 09:00 8 66 5.46 2.1 0 1013.1 0 13.1 22.5 30.0 78.2 63.8 216.5
08 09:00 5 87 5.92 3.1 0 1013.1 0 14.2 24.0 33.0 86.2 72.4 246.2
07 09:00 6 93 6.75 4.9 0 1013.1 0 16.0 25.1 36.0 94.1 82.6 282.3
06 09:00 9 93 8.2 8 7 1013.1 0 19.0 26.6 40.6 106.5 99.1 340.3
05 09:00 9 93 8.2 8 0 1013.1 0.4 19.0 26.6 40.6 106.5 99.1 340.3
04 09:00 7 93 7.21 5.9 0 1013.1 0.8 16.9 25.6 37.4 98.0 87.9 300.6
03 09:00 9 87 7.67 6.9 15 1013.1 1 17.8 25.8 38.4 100.6 91.8 314.8
02 09:00 7.2 97 7.62 6.8 0 1013.1 2 17.8 26.2 39.0 102.4 93.3 319.7
01 09:00 12 54 5.76 3 11 1013.1 0 13.6 22.0 29.7 77.3 64.3 218.6
30 09:00 8.2 57 4.78 0.3 0 1013.1 0 11.7 21.4 27.4 71.2 55.2 186.3
29 09:00 4.5 68 4.47 -0.8 0 1013.1 0 11.1 21.8 27.5 71.4 53.9 181.2
28 09:00 8 59 4.88 0.6 0 1013.1 0 11.9 21.6 27.8 72.4 56.6 191.1
27 09:00 7.5 72 5.77 2.8 0 1013.1 0 13.8 23.1 31.4 81.9 68.2 231.7
26 09:00 10 93 8.74 9 0 1013.1 0 20.1 27.3 42.3 111.2 105.3 362.2
25 09:00 11.5 100 10.33 11.5 0 1013.1 1 23.4 29.5 48.4 127.3 125.7 433.7
24 09:00 4.8 94 6.31 3.9 0 1013.1 0 15.1 24.7 34.7 90.7 77.9 265.4
23 09:00 9.2 81 7.24 6.2 0 1013.1 0 16.9 25.0 36.5 95.6 85.8 293.7
22 09:00 9.6 95 8.7 8.8 0 1013.1 0 20.0 27.3 42.4 111.3 105.3 362.1
21 09:00 9.2 95 8.49 8.4 19 1013.1 5 19.6 27.1 41.7 109.5 102.9 353.6
20 09:00 10.2 95 9.04 9.4 7 1013.1 2 20.7 27.7 43.5 114.4 109.3 376.0
19 09:00 13 40 4.54 -0.1 22 1013.1 0 11.0 20.0 25.0 64.9 49.2 165.9
18 09:00 9.5 80 7.28 6.3 7 1013.1 0 17.0 25.0 36.5 95.7 86.0 294.4
17 09:00 9.5 93 8.47 8.5 0 1013.1 0 19.5 27.0 41.5 108.9 102.2 351.3
16 09:00 11 87 8.71 9 0 1013.1 0 20.0 26.9 41.7 109.5 103.5 356.1
15 09:00 10.5 81 7.86 7.4 0 1013.1 0 18.2 25.6 38.4 100.7 92.6 317.7
14 09:00 9.8 90 8.35 8.2 22 1013.1 5 19.2 26.7 40.8 107.1 100.2 344.1
13 09:00 14.2 50 6.11 4.1 37 1013.1 0.4 14.3 21.9 30.1 78.6 66.7 227.3
12 09:00 9 51 4.5 -0.5 7 1013.1 0 11.0 20.8 26.1 67.8 51.3 172.6
11 09:00 8.5 60 5.12 1.3 0 1013.1 0 12.4 21.8 28.5 74.3 59.2 200.2
10 09:00 7.2 69 5.42 1.9 0 1013.1 0 13.1 22.6 30.1 78.6 63.9 216.8
09 09:00 5.2 89 6.13 3.6 0 1013.1 0 14.7 24.3 33.8 88.3 75.0 255.5
08 09:00 8 79 6.53 4.6 0 1013.1 0 15.4 24.2 34.2 89.4 77.6 264.9
07 09:00 10.2 84 8 7.7 0 1013.1 0 18.5 26.0 39.1 102.7 94.9 325.6
06 09:00 8.5 82 7 5.7 0 1013.1 0 16.4 24.8 35.9 93.9 83.3 285.0
05 09:00 8 86 7.11 5.8 0 1013.1 0 16.7 25.1 36.5 95.7 85.4 292.1
04 09:00 8 79 6.53 4.6 7 1013.1 0 15.4 24.2 34.2 89.4 77.6 264.9
03 09:00 12.5 94 10.34 11.6 7 1013.1 0.4 23.4 29.2 47.8 125.8 124.2 428.6
01 09:00 10 77 7.24 6.2 7 1013.1 4 16.8 24.8 36.1 94.7 84.9 290.7
31 09:00 9.5 100 9.1 9.5 0 1013.1 6 20.9 28.0 44.2 116.1 111.1 382.4
30 09:00 15 44 5.64 3 33 1013.1 0 13.3 21.1 28.2 73.4 60.5 205.8
29 09:00 8.5 87 7.43 6.4 0 1013.1 0 17.3 25.5 37.6 98.6 89.1 305.4
28 09:00 8.5 100 8.54 8.5 0 1013.1 0 19.7 27.4 42.3 111.1 104.6 359.3
27 09:00 10 81 7.61 6.9 0 1013.1 0 17.6 25.4 37.6 98.7 89.8 308.0
26 09:00 10.5 57 5.53 2.5 7 1013.1 0 13.2 22.0 29.3 76.5 62.7 212.8
25 09:00 10 65 6.11 3.7 0 1013.1 0 14.4 23.0 31.7 82.8 70.3 239.5
24 09:00 11.5 76 7.85 7.4 22 1013.1 2 18.1 25.3 37.9 99.4 91.3 313.2
23 09:00 12.2 83 8.96 9.5 11 1013.1 1 20.4 27.0 42.1 110.6 105.3 362.6
22 09:00 10.5 75 7.28 6.3 0 1013.1 0 16.9 24.7 36.1 94.5 84.9 290.7
21 09:00 7.5 86 6.89 5.3 0 1013.1 2 16.2 24.9 35.9 93.9 82.9 283.5
09 09:00 10.5 71 6.89 5.6 0 1013.1 0 16.1 24.1 34.5 90.4 79.8 272.9
08 09:00 14 83 10.01 11.2 7 1013.1 0 22.6 28.2 45.5 119.6 117.2 404.2
07 09:00 16.5 67 9.41 10.4 7 1013.1 0 21.2 26.4 41.6 109.4 105.5 363.7
06 09:00 15 35 4.49 -0.2 19 1013.1 0 10.8 19.5 24.2 62.8 47.5 160.0
05 09:00 11 76 7.61 6.9 0 1013.1 0 17.6 25.1 37.2 97.4 88.7 304.1
04 09:00 12 82 8.74 9.1 0 1013.1 0 20.0 26.7 41.3 108.4 102.6 353.0
03 09:00 12 94 10.02 11.1 0 1013.1 0.4 22.7 28.8 46.7 122.9 120.4 415.3
02 09:00 13 88 9.98 11.1 22 1013.1 3 22.6 28.4 45.9 120.8 118.3 408.0
01 09:00 10.8 90 8.9 9.2 22 1013.1 0.4 20.4 27.3 42.6 111.9 106.4 366.2
30 09:00 10 74 6.96 5.7 30 1013.1 3 16.2 24.3 35.0 91.7 81.2 277.8
29 09:00 12 88 9.38 10.1 15 1013.1 3 21.4 27.7 44.0 115.6 111.4 383.8
28 09:00 14.2 89 10.87 12.4 0 1013.1 0 24.4 29.6 49.0 129.1 128.9 445.3
27 09:00 13.8 55 6.55 4.9 0 1013.1 0 15.2 22.7 31.9 83.3 72.3 247.1
26 09:00 16.4 91 12.7 15 0 1013.1 11 28.2 32.0 55.6 146.6 151.3 523.6
25 09:00 18.4 61 9.59 10.7 0 1013.1 0 21.5 26.1 41.4 108.7 105.3 363.1
24 09:00 15.6 79 10.51 12 4 1013.1 0 23.6 28.5 46.6 122.8 121.6 419.9
23 09:00 17 80 11.58 13.5 0 1013.1 3 25.8 29.8 50.3 132.5 134.1 463.8
22 09:00 16 90 12.26 14.3 1013.1 0 27.3 31.4 53.9 142.2 145.7 504.0
21 09:00 15.4 63 8.28 8.4 0 1013.1 0 18.8 24.9 37.7 99.0 92.3 317.3
20 09:00 17 80 11.58 13.5 0 1013.1 0 25.8 29.8 50.3 132.5 134.1 463.8
19 09:00 11.2 97 9.83 10.8 4 1013.1 0 22.4 28.8 46.4 121.9 119.0 410.1
18 09:00 14.5 75 9.33 10.1 11 1013.1 0 21.1 26.9 42.4 111.4 107.2 369.3
17 09:00 14 80 9.65 10.6 7 1013.1 0 21.8 27.6 44.0 115.6 112.2 386.9
16 09:00 18 71 10.9 12.7 7 1013.1 0 24.3 28.4 46.8 123.3 123.1 425.4
15 09:00 24.5 22 4.92 1.5 37 1013.1 0 11.4 18.2 22.9 59.5 46.6 157.8
14 09:00 19 39 6.35 4.7 0 1013.1 0 14.6 21.2 29.2 76.3 65.5 223.8
13 09:00 15.2 82 10.64 12.1 0 1013.1 0 23.9 28.8 47.4 124.8 124.0 428.4
12 09:00 14 62 7.48 6.9 22 1013.1 0 17.2 24.1 35.3 92.5 83.7 287.0
11 15:00 15.5 64 8.46 8.7 19 1013.1 0 19.2 25.2 38.4 100.7 94.5 324.9
10 09:00 18 58 8.91 9.6 0 1013.1 0 20.0 25.2 38.9 102.2 97.1 334.6
09 09:00 16 77 10.49 12 0 1013.1 0 23.5 28.3 46.3 121.9 120.7 416.8
08 09:00 16.5 77 10.81 12.4 15 1013.1 0 24.2 28.7 47.4 124.7 124.3 429.4
07 09:00 16 87 11.85 13.9 0 1013.1 0 26.4 30.7 52.1 137.4 139.8 483.3
06 09:00 13.8 97 11.56 13.3 0 1013.1 0 25.9 30.9 52.3 137.9 139.6 482.5
05 09:00 14 83 10.01 11.2 11 1013.1 22.6 28.2 45.5 119.6 117.2 404.2
04 09:00 11.5 92 9.5 10.2 22 1013.1 10 21.6 28.1 44.8 117.7 113.8 392.2
03 09:00 16 74 10.08 11.4 0 1013.1 0 22.6 27.6 44.6 117.4 115.1 397.3
02 11:13 14 89 10.74 12.2 0 1013.1 24.2 29.4 48.6 127.9 127.4 440.0
01 09:00 17.2 78 11.42 13.3 0 1013.1 0 25.4 29.5 49.5 130.4 131.6 454.9
31 09:00 14.5 84 10.45 11.8 0 1013.1 0 23.5 28.8 47.1 123.8 122.5 423.0
30 09:00 12.4 97 10.6 12 0 1013.1 0 24.0 29.7 49.0 129.0 128.1 442.2
29 09:00 18.6 80 12.73 15.2 0 1013.1 0 28.1 31.3 54.2 142.9 147.4 510.3
28 09:00 16.4 49 6.84 5.8 0 1013.1 0 15.7 22.5 31.9 83.5 73.4 251.4
27 09:00 13.6 89 10.47 11.8 0 1013.1 0 23.6 29.1 47.7 125.5 124.3 428.9
26 09:00 13.2 77 8.84 9.3 0 1013.1 0 20.1 26.5 41.1 107.8 102.4 352.3
25 09:00 15.5 82 10.84 12.4 7 1013.1 19 24.3 29.1 48.1 126.6 126.3 436.4
23 09:00 15 59 7.57 7 22 1013.1 0 17.3 23.9 35.2 92.2 83.8 287.3
22 09:00 17.5 77 11.48 13.5 7 1013.1 0 25.5 29.5 49.6 130.5 131.9 456.0

Last Refresh: 13-Jul-2020 08:10:36

Most of the information presented on this site is sourced from the Bureau of Meteorology.  Copyright in all material sourced from the Bureau of Meteorology resides with the Commonwealth of Australia.